createdAt,value
2018-03-01T00:01:07.115Z,69.20
2018-03-01T00:03:35.422Z,69.80
2018-03-01T00:06:03.834Z,69.30
2018-03-01T00:08:32.945Z,69.50
2018-03-01T00:11:01.322Z,69.40
2018-03-01T00:13:29.742Z,69.00
2018-03-01T00:15:58.075Z,70.10
2018-03-01T00:18:26.421Z,70.30
2018-03-01T00:20:54.843Z,71.00
2018-03-01T00:23:23.183Z,70.20
2018-03-01T00:25:52.310Z,71.10
2018-03-01T00:28:20.722Z,71.10
2018-03-01T00:30:49.083Z,71.10
2018-03-01T00:33:17.448Z,70.50
2018-03-01T00:35:45.871Z,69.30
2018-03-01T00:38:14.182Z,68.90
2018-03-01T00:40:43.302Z,68.60
2018-03-01T00:43:11.722Z,68.40
2018-03-01T00:45:40.125Z,68.20
2018-03-01T00:48:09.302Z,68.60
2018-03-01T00:50:37.723Z,68.50
2018-03-01T00:53:06.082Z,69.40
2018-03-01T00:55:35.183Z,69.60
2018-03-01T00:58:04.328Z,69.00
2018-03-01T01:00:32.695Z,69.00
2018-03-01T01:03:01.095Z,69.00
2018-03-01T01:05:29.510Z,67.70
2018-03-01T01:07:58.579Z,68.80
2018-03-01T01:10:26.920Z,68.70
2018-03-01T01:12:55.322Z,68.90
2018-03-01T01:15:23.656Z,68.40
2018-03-01T01:17:52.106Z,69.70
2018-03-01T01:20:20.535Z,69.20
2018-03-01T01:22:48.863Z,68.80
2018-03-01T01:25:17.185Z,68.90
2018-03-01T01:27:45.562Z,69.60
2018-03-01T01:30:13.870Z,69.30
2018-03-01T01:32:42.203Z,69.30
2018-03-01T01:35:10.623Z,70.20
2018-03-01T01:37:39.043Z,69.70
2018-03-01T01:40:07.435Z,69.80
2018-03-01T01:42:35.822Z,70.20
2018-03-01T01:45:04.237Z,70.10
2018-03-01T01:47:32.583Z,70.00
2018-03-01T01:50:01.087Z,69.70
2018-03-01T01:52:29.442Z,70.90
2018-03-01T01:54:57.799Z,71.10
2018-03-01T01:57:26.942Z,70.50
2018-03-01T01:59:55.315Z,70.50
2018-03-01T02:02:24.537Z,72.20
2018-03-01T02:04:52.857Z,72.10
2018-03-01T02:07:21.140Z,72.60
2018-03-01T02:09:49.466Z,73.80
2018-03-01T02:12:17.788Z,74.00
2018-03-01T02:14:46.077Z,74.60
2018-03-01T02:17:14.436Z,74.10
2018-03-01T02:19:42.712Z,72.70
2018-03-01T02:22:11.039Z,72.50
2018-03-01T02:24:39.439Z,72.10
2018-03-01T02:27:07.756Z,72.20
2018-03-01T02:29:36.040Z,71.70
2018-03-01T02:32:04.380Z,70.90
2018-03-01T02:34:32.737Z,70.80
2018-03-01T02:37:01.049Z,72.80
2018-03-01T02:39:29.417Z,73.10
2018-03-01T02:41:57.757Z,74.60
2018-03-01T02:44:26.878Z,74.30
2018-03-01T02:46:55.183Z,74.20
2018-03-01T02:49:23.484Z,73.50
2018-03-01T02:51:51.824Z,72.60
2018-03-01T02:54:20.173Z,72.50
2018-03-01T02:56:48.459Z,73.20
2018-03-01T02:59:16.793Z,74.00
2018-03-01T03:01:45.100Z,74.30
2018-03-01T03:04:13.483Z,73.70
2018-03-01T03:06:41.816Z,73.70
2018-03-01T03:09:10.138Z,73.90
2018-03-01T03:11:38.476Z,73.80
2018-03-01T03:14:06.785Z,73.30
2018-03-01T03:16:35.084Z,73.90
2018-03-01T03:19:03.445Z,73.50
2018-03-01T03:21:31.739Z,74.40
2018-03-01T03:24:00.086Z,73.60
2018-03-01T03:26:28.404Z,73.30
2018-03-01T03:28:56.689Z,73.40
2018-03-01T03:31:25.009Z,73.50
2018-03-01T03:33:54.098Z,73.40
2018-03-01T03:36:23.208Z,72.90
2018-03-01T03:38:52.260Z,73.20
2018-03-01T03:41:20.560Z,73.20
2018-03-01T03:43:49.681Z,74.70
2018-03-01T03:46:17.979Z,74.60
2018-03-01T03:48:46.365Z,75.30
2018-03-01T03:51:14.708Z,77.00
2018-03-01T03:53:43.024Z,76.20
2018-03-01T03:56:11.362Z,77.00
2018-03-01T03:58:39.701Z,77.50
2018-03-01T04:01:08.033Z,74.90
2018-03-01T04:03:36.403Z,74.00
2018-03-01T04:06:04.733Z,74.20
2018-03-01T04:08:33.046Z,75.00
2018-03-01T04:11:01.377Z,75.60
2018-03-01T04:13:29.700Z,76.80
2018-03-01T04:15:58.752Z,75.70
2018-03-01T04:18:27.074Z,76.50
2018-03-01T04:20:55.377Z,75.60
2018-03-01T04:23:23.689Z,73.20
2018-03-01T04:25:52.024Z,74.50
2018-03-01T04:28:20.337Z,74.30
2018-03-01T04:30:48.620Z,74.70
2018-03-01T04:33:16.941Z,73.90
2018-03-01T04:35:45.250Z,72.00
2018-03-01T04:38:13.600Z,73.60
2018-03-01T04:40:41.893Z,75.50
2018-03-01T04:43:10.188Z,76.40
2018-03-01T04:45:38.502Z,77.20
2018-03-01T04:48:06.785Z,77.10
2018-03-01T04:50:35.923Z,78.10
2018-03-01T04:53:04.245Z,78.10
2018-03-01T04:55:33.316Z,78.10
2018-03-01T04:58:01.646Z,78.10
2018-03-01T05:00:30.010Z,77.60
2018-03-01T05:03:01.208Z,77.20
2018-03-01T05:05:29.501Z,77.20
2018-03-01T05:07:57.785Z,76.50
2018-03-01T05:10:26.087Z,77.70
2018-03-01T05:12:55.205Z,77.50
2018-03-01T05:15:23.552Z,77.50
2018-03-01T05:17:52.630Z,76.80
2018-03-01T05:20:20.980Z,76.80
2018-03-01T05:22:49.309Z,76.80
2018-03-01T05:25:18.374Z,76.00
2018-03-01T05:27:46.765Z,76.00
2018-03-01T05:30:15.815Z,78.00
2018-03-01T05:32:44.128Z,77.90
2018-03-01T05:35:13.341Z,78.10
2018-03-01T05:37:42.440Z,76.80
2018-03-01T05:40:11.612Z,77.00
2018-03-01T05:42:39.908Z,77.00
2018-03-01T05:45:09.037Z,71.40
2018-03-01T05:47:37.403Z,71.40
2018-03-01T05:50:05.728Z,73.50
2018-03-01T05:52:34.872Z,73.80
2018-03-01T05:55:03.212Z,70.20
2018-03-01T05:57:32.312Z,75.40
2018-03-01T06:00:00.824Z,75.30
2018-03-01T06:02:29.306Z,76.00
2018-03-01T06:04:57.678Z,77.00
2018-03-01T06:07:26.752Z,77.10
2018-03-01T06:09:55.166Z,77.10
2018-03-01T06:12:23.501Z,77.50
2018-03-01T06:14:51.837Z,78.30
2018-03-01T06:17:20.201Z,76.10
2018-03-01T06:19:48.624Z,76.20
2018-03-01T06:22:16.932Z,76.70
2018-03-01T06:24:46.017Z,75.40
2018-03-01T06:27:15.329Z,75.30
2018-03-01T06:29:44.018Z,61.60
2018-03-01T06:32:12.447Z,62.10
2018-03-01T06:34:40.761Z,71.60
2018-03-01T06:37:09.897Z,69.50
2018-03-01T06:39:38.240Z,69.50
2018-03-01T06:42:07.615Z,74.00
2018-03-01T06:44:35.898Z,74.00
2018-03-01T06:47:04.188Z,72.50
2018-03-01T06:49:33.309Z,66.10
2018-03-01T06:52:03.037Z,66.00
2018-03-01T06:54:31.408Z,60.90
2018-03-01T06:56:59.740Z,58.20
2018-03-01T06:59:28.053Z,65.50
2018-03-01T07:01:56.375Z,69.10
2018-03-01T07:04:24.685Z,66.60
2018-03-01T07:06:53.824Z,59.90
2018-03-01T07:09:22.184Z,59.90
2018-03-01T07:11:50.497Z,57.20
2018-03-01T07:14:18.855Z,62.80
2018-03-01T07:16:47.153Z,63.10
2018-03-01T07:19:15.605Z,63.80
2018-03-01T07:21:43.985Z,63.50
2018-03-01T07:24:12.386Z,62.40
2018-03-01T07:26:40.777Z,59.60
2018-03-01T07:29:09.105Z,58.70
2018-03-01T07:31:37.496Z,63.10
2018-03-01T07:34:06.354Z,66.10
2018-03-01T07:36:35.520Z,60.70
2018-03-01T07:39:03.952Z,60.70
2018-03-01T07:41:32.533Z,58.10
2018-03-01T07:44:01.486Z,57.00
2018-03-01T07:46:29.788Z,55.70
2018-03-01T07:48:59.263Z,54.30
2018-03-01T07:51:27.632Z,54.30
2018-03-01T07:53:55.929Z,61.60
2018-03-01T07:56:25.085Z,57.10
2018-03-01T07:58:53.396Z,56.90
2018-03-01T08:01:21.727Z,53.80
2018-03-01T08:03:50.133Z,53.30
2018-03-01T08:06:18.513Z,52.40
2018-03-01T08:08:47.942Z,51.20
2018-03-01T08:11:17.095Z,50.50
2018-03-01T08:13:45.436Z,50.50
2018-03-01T08:16:14.203Z,50.30
2018-03-01T08:18:43.291Z,49.80
2018-03-01T08:21:11.637Z,49.10
2018-03-01T08:23:39.988Z,49.80
2018-03-01T08:26:08.307Z,49.60
2018-03-01T08:28:36.668Z,49.80
2018-03-01T08:31:05.780Z,48.00
2018-03-01T08:33:34.149Z,48.00
2018-03-01T08:36:02.462Z,49.80
2018-03-01T08:38:31.533Z,49.30
2018-03-01T08:40:59.872Z,49.20
2018-03-01T08:43:28.214Z,47.30
2018-03-01T08:45:57.368Z,49.10
2018-03-01T08:48:26.378Z,49.10
2018-03-01T08:50:54.720Z,48.70
2018-03-01T08:53:23.057Z,48.50
2018-03-01T08:55:52.168Z,48.30
2018-03-01T08:58:20.533Z,48.20
2018-03-01T09:00:49.645Z,47.40
2018-03-01T09:03:17.980Z,47.40
2018-03-01T09:05:46.346Z,47.20
2018-03-01T09:08:14.669Z,47.00
2018-03-01T09:10:43.116Z,47.20
2018-03-01T09:13:11.459Z,45.90
2018-03-01T09:15:40.533Z,47.30
2018-03-01T09:18:08.885Z,47.00
2018-03-01T09:20:38.046Z,47.10
2018-03-01T09:23:06.426Z,47.10
2018-03-01T09:25:34.756Z,48.40
2018-03-01T09:28:03.069Z,47.50
2018-03-01T09:30:31.375Z,48.70
2018-03-01T09:32:59.703Z,47.90
2018-03-01T09:35:28.108Z,47.60
2018-03-01T09:37:56.818Z,47.50
2018-03-01T09:40:25.211Z,47.00
2018-03-01T09:42:53.553Z,46.70
2018-03-01T09:45:21.946Z,46.40
2018-03-01T09:47:50.298Z,46.50
2018-03-01T09:50:19.389Z,46.10
2018-03-01T09:52:47.731Z,46.00
2018-03-01T09:55:16.085Z,47.10
2018-03-01T09:57:45.737Z,45.90
2018-03-01T10:00:14.097Z,45.90
2018-03-01T10:02:42.447Z,45.30
2018-03-01T10:05:10.812Z,44.10
2018-03-01T10:07:39.188Z,45.70
2018-03-01T10:10:07.497Z,45.50
2018-03-01T10:12:35.865Z,46.20
2018-03-01T10:15:05.086Z,46.30
2018-03-01T10:17:33.471Z,46.20
2018-03-01T10:20:01.832Z,46.40
2018-03-01T10:22:30.146Z,45.90
2018-03-01T10:24:58.515Z,46.60
2018-03-01T10:27:26.877Z,45.90
2018-03-01T10:29:55.186Z,46.70
2018-03-01T10:32:23.510Z,46.60
2018-03-01T10:34:51.850Z,45.60
2018-03-01T10:37:20.225Z,45.70
2018-03-01T10:39:48.601Z,45.60
2018-03-01T10:42:16.900Z,46.70
2018-03-01T10:44:46.240Z,46.70
2018-03-01T10:47:15.312Z,46.10
2018-03-01T10:49:43.732Z,46.00
2018-03-01T10:52:12.072Z,46.70
2018-03-01T10:54:41.172Z,46.40
2018-03-01T10:57:09.504Z,46.10
2018-03-01T10:59:37.892Z,46.20
2018-03-01T11:02:06.247Z,45.90
2018-03-01T11:04:34.548Z,45.70
2018-03-01T11:07:03.565Z,46.30
2018-03-01T11:09:32.672Z,44.90
2018-03-01T11:12:01.832Z,45.20
2018-03-01T11:14:30.118Z,45.20
2018-03-01T11:17:01.485Z,44.80
2018-03-01T11:19:29.911Z,45.70
2018-03-01T11:21:58.237Z,44.30
2018-03-01T11:24:26.647Z,43.90
2018-03-01T11:26:54.966Z,44.40
2018-03-01T11:29:23.297Z,44.70
2018-03-01T11:31:51.710Z,43.80
2018-03-01T11:34:20.034Z,43.30
2018-03-01T11:36:49.062Z,41.60
2018-03-01T11:39:17.428Z,41.50
2018-03-01T11:41:45.818Z,42.80
2018-03-01T11:44:14.149Z,40.80
2018-03-01T11:46:42.465Z,42.00
2018-03-01T11:49:10.801Z,41.90
2018-03-01T11:51:39.202Z,41.80
2018-03-01T11:54:08.271Z,43.20
2018-03-01T11:56:36.606Z,43.10
2018-03-01T11:59:04.934Z,42.80
2018-03-01T12:01:34.026Z,42.10
2018-03-01T12:04:02.348Z,42.10
2018-03-01T12:06:30.652Z,40.20
2018-03-01T12:08:58.988Z,40.40
2018-03-01T12:11:27.270Z,40.30
2018-03-01T12:13:55.556Z,39.60
2018-03-01T12:16:23.906Z,40.40
2018-03-01T12:18:52.948Z,39.90
2018-03-01T12:21:21.259Z,39.90
2018-03-01T12:23:50.319Z,40.20
2018-03-01T12:26:18.598Z,39.80
2018-03-01T12:28:46.905Z,40.10
2018-03-01T12:31:15.972Z,39.40
2018-03-01T12:33:45.247Z,38.40
2018-03-01T12:36:13.505Z,38.40
2018-03-01T12:38:41.786Z,39.50
2018-03-01T12:41:10.092Z,38.90
2018-03-01T12:43:38.411Z,38.30
2018-03-01T12:46:07.578Z,38.60
2018-03-01T12:48:35.769Z,38.50
2018-03-01T12:51:04.092Z,38.50
2018-03-01T12:53:32.449Z,37.40
2018-03-01T12:56:01.505Z,37.60
2018-03-01T12:58:29.874Z,37.50
2018-03-01T13:00:58.179Z,36.30
2018-03-01T13:03:26.885Z,36.70
2018-03-01T13:05:56.003Z,44.40
2018-03-01T13:08:24.353Z,44.30
2018-03-01T13:10:53.520Z,45.20
2018-03-01T13:13:22.656Z,47.10
2018-03-01T13:15:51.043Z,47.00
2018-03-01T13:18:19.367Z,49.30
2018-03-01T13:20:47.709Z,49.80
2018-03-01T13:23:16.090Z,48.60
2018-03-01T13:25:44.400Z,47.70
2018-03-01T13:28:12.716Z,46.20
2018-03-01T13:30:41.830Z,48.80
2018-03-01T13:33:15.540Z,48.80
2018-03-01T13:35:43.910Z,51.60
2018-03-01T13:38:12.234Z,51.30
2018-03-01T13:40:41.384Z,55.70
2018-03-01T13:43:12.565Z,55.70
2018-03-01T13:45:52.746Z,55.20
2018-03-01T13:48:21.874Z,56.10
2018-03-01T13:50:50.206Z,56.00
2018-03-01T13:53:18.611Z,56.10
2018-03-01T13:55:46.969Z,57.00
2018-03-01T13:58:15.317Z,56.80
2018-03-01T14:00:44.566Z,56.30
2018-03-01T14:03:12.909Z,54.00
2018-03-01T14:05:43.197Z,54.90
2018-03-01T14:08:11.499Z,56.00
2018-03-01T14:10:39.866Z,57.10
2018-03-01T14:13:11.776Z,57.30
2018-03-01T14:15:41.684Z,57.10
2018-03-01T14:18:27.359Z,56.70
2018-03-01T14:24:23.800Z,57.20
2018-03-01T14:26:54.077Z,57.60
2018-03-01T14:29:27.981Z,57.80
2018-03-01T14:31:57.212Z,58.80
2018-03-01T14:34:25.533Z,58.80
2018-03-01T14:36:54.627Z,57.90
2018-03-01T14:39:23.700Z,57.50
2018-03-01T14:41:52.026Z,57.50
2018-03-01T14:44:20.366Z,58.80
2018-03-01T14:46:49.476Z,59.00
2018-03-01T14:49:18.577Z,58.70
2018-03-01T14:51:47.667Z,58.30
2018-03-01T14:54:16.923Z,59.20
2018-03-01T14:56:45.277Z,59.20
2018-03-01T14:59:13.606Z,60.70
2018-03-01T15:01:41.932Z,59.50
2018-03-01T15:04:10.293Z,60.00
2018-03-01T15:06:38.816Z,59.60
2018-03-01T15:09:07.200Z,60.30
2018-03-01T15:11:35.492Z,60.00
2018-03-01T15:14:03.794Z,60.40
2018-03-01T15:16:32.893Z,61.10
2018-03-01T15:19:01.220Z,61.10
2018-03-01T15:21:29.585Z,60.90
2018-03-01T15:23:58.065Z,60.90
2018-03-01T15:26:26.394Z,61.00
2018-03-01T15:28:55.528Z,62.00
2018-03-01T15:31:23.885Z,62.00
2018-03-01T15:33:52.262Z,61.50
2018-03-01T15:36:20.556Z,62.50
2018-03-01T15:38:48.878Z,61.60
2018-03-01T15:41:17.208Z,61.60
2018-03-01T15:43:45.556Z,63.40
2018-03-01T15:46:13.930Z,62.90
2018-03-01T15:48:43.165Z,63.20
2018-03-01T15:51:11.596Z,63.10
2018-03-01T15:53:40.720Z,62.00
2018-03-01T15:56:09.163Z,62.00
2018-03-01T15:58:37.687Z,62.50
2018-03-01T16:01:06.950Z,61.60
2018-03-01T16:03:37.146Z,62.20
2018-03-01T16:06:05.623Z,62.20
2018-03-01T16:08:34.052Z,62.80
2018-03-01T16:11:03.135Z,63.10
2018-03-01T16:13:32.253Z,63.10
2018-03-01T16:16:00.576Z,63.10
2018-03-01T16:18:28.999Z,63.00
2018-03-01T16:20:58.083Z,63.80
2018-03-01T16:23:27.250Z,63.70
2018-03-01T16:25:55.766Z,63.70
2018-03-01T16:28:25.056Z,65.10
2018-03-01T16:30:54.325Z,64.10
2018-03-01T16:33:22.628Z,64.10
2018-03-01T16:35:51.737Z,65.00
2018-03-01T16:38:20.854Z,65.10
2018-03-01T16:40:49.197Z,65.10
2018-03-01T16:43:18.312Z,65.30
2018-03-01T16:45:46.720Z,65.30
2018-03-01T16:48:15.100Z,65.00
2018-03-01T16:50:44.411Z,65.00
2018-03-01T16:53:13.623Z,65.80
2018-03-01T16:55:42.012Z,65.80
2018-03-01T16:58:10.329Z,66.60
2018-03-01T17:00:40.025Z,66.00
2018-03-01T17:03:09.967Z,66.50
2018-03-01T17:05:39.439Z,66.60
2018-03-01T17:08:09.955Z,67.40
2018-03-01T17:10:40.007Z,67.20
2018-03-01T17:13:08.986Z,67.20
2018-03-01T17:15:41.031Z,67.70
2018-03-01T17:18:10.673Z,67.70
2018-03-01T17:20:38.988Z,67.10
2018-03-01T17:23:07.307Z,67.30
2018-03-01T17:25:36.381Z,67.70
2018-03-01T17:28:04.862Z,67.60
2018-03-01T17:30:34.064Z,67.70
2018-03-01T17:33:02.583Z,67.70
2018-03-01T17:35:30.886Z,68.30
2018-03-01T17:37:59.200Z,68.10
2018-03-01T17:40:27.486Z,68.00
2018-03-01T17:42:57.434Z,68.50
2018-03-01T17:45:25.828Z,67.60
2018-03-01T17:47:54.188Z,67.40
2018-03-01T17:50:22.611Z,67.90
2018-03-01T17:52:51.042Z,67.30
2018-03-01T17:55:19.466Z,67.80
2018-03-01T17:57:47.903Z,67.90
2018-03-01T18:00:16.383Z,68.10
2018-03-01T18:02:44.987Z,68.40
2018-03-01T18:05:13.287Z,68.50
2018-03-01T18:07:41.681Z,68.10
2018-03-01T18:10:10.763Z,67.90
2018-03-01T18:12:39.263Z,67.90
2018-03-01T18:15:07.625Z,69.10
2018-03-01T18:17:36.106Z,68.40
2018-03-01T18:20:04.983Z,68.70
2018-03-01T18:22:33.325Z,68.80
2018-03-01T18:25:01.619Z,68.50
2018-03-01T18:27:30.055Z,68.70
2018-03-01T18:29:59.136Z,69.50
2018-03-01T18:32:27.602Z,69.50
2018-03-01T18:34:55.922Z,69.50
2018-03-01T18:37:24.239Z,69.10
2018-03-01T18:39:52.586Z,69.20
2018-03-01T18:42:21.029Z,68.70
2018-03-01T18:44:49.385Z,68.90
2018-03-01T18:47:17.831Z,69.00
2018-03-01T18:49:46.158Z,69.00
2018-03-01T18:52:14.480Z,69.40
2018-03-01T18:54:42.898Z,69.40
2018-03-01T18:57:11.186Z,69.30
2018-03-01T18:59:39.517Z,68.70
2018-03-01T19:02:07.871Z,69.50
2018-03-01T19:04:37.080Z,68.40
2018-03-01T19:07:05.443Z,68.40
2018-03-01T19:09:34.541Z,68.80
2018-03-01T19:12:03.781Z,68.40
2018-03-01T19:14:32.108Z,68.30
2018-03-01T19:17:02.643Z,68.00
2018-03-01T19:19:31.083Z,67.80
2018-03-01T19:22:01.762Z,68.30
2018-03-01T19:24:30.944Z,68.80
2018-03-01T19:27:00.097Z,70.00
2018-03-01T19:29:28.448Z,69.10
2018-03-01T19:31:58.397Z,69.50
2018-03-01T19:34:26.775Z,69.20
2018-03-01T19:36:55.223Z,69.00
2018-03-01T19:39:23.543Z,69.50
2018-03-01T19:41:51.962Z,69.10
2018-03-01T19:44:20.384Z,69.10
2018-03-01T19:46:48.783Z,69.00
2018-03-01T19:49:17.301Z,68.90
2018-03-01T19:51:46.548Z,69.50
2018-03-01T19:54:14.923Z,69.50
2018-03-01T19:56:43.328Z,69.10
2018-03-01T19:59:11.857Z,69.70
2018-03-01T20:01:40.383Z,69.60
2018-03-01T20:04:10.488Z,69.00
2018-03-01T20:06:38.814Z,69.00
2018-03-01T20:09:08.084Z,68.90
2018-03-01T20:11:36.571Z,68.90
2018-03-01T20:14:04.963Z,68.20
2018-03-01T20:16:34.062Z,68.90
2018-03-01T20:19:03.184Z,69.00
2018-03-01T20:21:31.643Z,69.00
2018-03-01T20:24:00.718Z,69.30
2018-03-01T20:26:29.143Z,69.30
2018-03-01T20:28:57.454Z,68.00
2018-03-01T20:31:26.825Z,67.30
2018-03-01T20:33:55.264Z,67.70
2018-03-01T20:36:24.407Z,68.20
2018-03-01T20:38:52.847Z,68.10
2018-03-01T20:41:21.945Z,68.90
2018-03-01T20:43:50.385Z,68.90
2018-03-01T20:46:18.741Z,68.50
2018-03-01T20:48:47.045Z,68.80
2018-03-01T20:51:15.332Z,69.60
2018-03-01T20:53:45.489Z,69.40
2018-03-01T20:56:14.567Z,68.80
2018-03-01T20:58:43.668Z,69.00
2018-03-01T21:01:11.995Z,69.00
2018-03-01T21:03:40.249Z,68.90
2018-03-01T21:06:08.535Z,68.50
2018-03-01T21:08:37.648Z,68.70
2018-03-01T21:11:05.979Z,68.70
2018-03-01T21:13:34.289Z,68.70
2018-03-01T21:16:02.617Z,68.90
2018-03-01T21:18:30.947Z,68.90
2018-03-01T21:20:59.265Z,68.80
2018-03-01T21:23:28.348Z,69.30
2018-03-01T21:25:56.718Z,69.30
2018-03-01T21:28:25.123Z,68.90
2018-03-01T21:30:53.425Z,68.60
2018-03-01T21:33:21.748Z,68.80
2018-03-01T21:35:50.073Z,68.60
2018-03-01T21:38:18.389Z,68.40
2018-03-01T21:40:46.736Z,68.50
2018-03-01T21:43:15.074Z,68.70
2018-03-01T21:45:44.188Z,69.50
2018-03-01T21:48:12.528Z,69.50
2018-03-01T21:50:40.928Z,70.00
2018-03-01T21:53:10.010Z,71.00
2018-03-01T21:55:38.314Z,70.90
2018-03-01T21:58:06.644Z,69.00
2018-03-01T22:00:34.960Z,69.70
2018-03-01T22:03:04.153Z,69.70
2018-03-01T22:05:33.205Z,69.90
2018-03-01T22:08:01.614Z,69.90
2018-03-01T22:10:30.664Z,69.50
2018-03-01T22:12:59.939Z,69.50
2018-03-01T22:15:28.238Z,69.50
2018-03-01T22:17:56.604Z,69.80
2018-03-01T22:20:24.905Z,70.50
2018-03-01T22:22:53.216Z,69.80
2018-03-01T22:25:21.520Z,70.20
2018-03-01T22:27:49.812Z,69.30
2018-03-01T22:30:18.165Z,69.50
2018-03-01T22:32:47.226Z,70.60
2018-03-01T22:35:15.536Z,70.60
2018-03-01T22:37:43.950Z,69.80
2018-03-01T22:40:13.100Z,68.70
2018-03-01T22:42:42.177Z,68.80
2018-03-01T22:45:10.485Z,68.80
2018-03-01T22:47:39.674Z,69.40
2018-03-01T22:50:09.572Z,69.50
2018-03-01T22:52:37.865Z,69.40
2018-03-01T22:55:06.951Z,70.20
2018-03-01T22:57:35.266Z,70.20
2018-03-01T23:00:03.685Z,70.10
2018-03-01T23:02:31.965Z,70.40
2018-03-01T23:05:00.366Z,69.30
2018-03-01T23:07:29.469Z,70.70
2018-03-01T23:09:58.535Z,71.60
2018-03-01T23:12:26.885Z,71.60
2018-03-01T23:14:55.180Z,71.80
2018-03-01T23:17:23.496Z,70.80
2018-03-01T23:19:52.561Z,71.40
2018-03-01T23:22:21.860Z,71.30
2018-03-01T23:24:50.132Z,71.60
2018-03-01T23:27:18.446Z,71.70
2018-03-01T23:29:46.722Z,72.00
2018-03-01T23:32:15.789Z,71.70
2018-03-01T23:34:44.113Z,71.60
2018-03-01T23:37:12.413Z,72.70
2018-03-01T23:39:40.756Z,72.70
2018-03-01T23:42:09.097Z,72.80
2018-03-01T23:44:37.468Z,71.80
2018-03-01T23:47:05.771Z,71.20
2018-03-01T23:49:34.865Z,70.30
2018-03-01T23:52:03.948Z,70.40
2018-03-01T23:54:33.003Z,71.00
2018-03-01T23:57:01.266Z,71.00
2018-03-01T23:59:29.549Z,70.40
